Time;durP1;ratioP1;P1;durP2;ratioP2;P2;SDS_P1;SDS_P2;PMS_P1;PMS_P2;Temp;Humidity;BMP_temperature;BMP_pressure;BME280_temperature;BME280_humidity;BME280_pressure;Samples;Min_cycle;Max_cycle;Signal;HPM_P1;HPM_P2
2022/09/27 00:00:41;;;;;;;1.35;0.10;;;;;;;8.71;100.00;99683.41;5021225;28;20075;-49
2022/09/27 00:03:10;;;;;;;0.90;0.20;;;;;;;8.67;100.00;99678.72;5017636;28;20250;-48
2022/09/27 00:05:36;;;;;;;5.88;0.20;;;;;;;8.67;100.00;99679.53;5014251;28;20107;-52
2022/09/27 00:08:01;;;;;;;4.85;0.10;;;;;;;8.66;100.00;99690.31;5016660;28;20029;-48
2022/09/27 00:10:27;;;;;;;1.38;0.00;;;;;;;8.63;100.00;99688.06;5018806;28;20072;-50
2022/09/27 00:12:53;;;;;;;2.90;0.77;;;;;;;8.61;100.00;99684.78;5024506;28;20053;-51
2022/09/27 00:15:19;;;;;;;0.90;0.20;;;;;;;8.60;100.00;99688.47;5020567;28;20032;-48
2022/09/27 00:17:45;;;;;;;0.47;0.00;;;;;;;8.58;100.00;99687.84;5021280;28;20033;-49
2022/09/27 00:20:10;;;;;;;0.65;0.08;;;;;;;8.59;100.00;99687.63;5025284;28;20501;-49
2022/09/27 00:22:37;;;;;;;5.25;0.38;;;;;;;8.58;100.00;99685.19;5015052;28;20333;-52
2022/09/27 00:25:06;;;;;;;2.20;0.93;;;;;;;8.47;100.00;99678.66;5014255;28;20755;-51
2022/09/27 00:27:32;;;;;;;0.90;0.10;;;;;;;8.28;100.00;99680.13;5024185;28;20091;-52
2022/09/27 00:29:57;;;;;;;1.13;0.10;;;;;;;8.28;100.00;99683.59;5025057;28;20030;-51
2022/09/27 00:32:22;;;;;;;3.55;0.10;;;;;;;8.24;100.00;99674.44;5026442;28;20074;-51
2022/09/27 00:34:48;;;;;;;4.07;0.20;;;;;;;8.22;100.00;99673.81;5024100;28;20128;-49
2022/09/27 00:37:13;;;;;;;9.77;1.15;;;;;;;8.22;100.00;99686.22;5024350;28;20037;-47
2022/09/27 00:39:38;;;;;;;5.30;0.77;;;;;;;8.28;100.00;99675.66;5023061;28;20033;-49
2022/09/27 00:42:05;;;;;;;0.32;0.00;;;;;;;8.22;100.00;99686.22;5025647;28;20025;-50
2022/09/27 00:44:32;;;;;;;1.92;0.10;;;;;;;8.23;100.00;99690.47;5028136;28;20029;-50
2022/09/27 00:47:04;;;;;;;2.28;0.15;;;;;;;8.38;100.00;99691.16;5032057;28;20082;-53
2022/09/27 00:49:51;;;;;;;0.47;0.00;;;;;;;8.46;100.00;99688.38;5023805;28;20532;-51
2022/09/27 00:52:26;;;;;;;2.03;0.32;;;;;;;8.45;100.00;99692.03;5016978;28;20057;-50
2022/09/27 00:54:59;;;;;;;2.88;0.00;;;;;;;8.45;100.00;99684.13;5023860;28;20079;-47
2022/09/27 00:57:24;;;;;;;2.40;0.00;;;;;;;8.42;100.00;99692.44;5025328;28;20033;-50
2022/09/27 00:59:56;;;;;;;2.88;0.15;;;;;;;8.36;100.00;99687.09;5028378;28;20029;-50
2022/09/27 01:02:22;;;;;;;0.85;0.10;;;;;;;8.36;100.00;99692.38;5025329;28;20025;-57
2022/09/27 01:04:48;;;;;;;2.03;0.63;;;;;;;8.35;100.00;99686.28;5024473;28;20032;-49
2022/09/27 01:07:14;;;;;;;3.55;0.10;;;;;;;8.28;100.00;99685.41;5024751;28;20088;-50
2022/09/27 01:09:39;;;;;;;2.88;0.20;;;;;;;8.29;100.00;99687.88;5024483;28;20421;-49
2022/09/27 01:12:07;;;;;;;0.88;0.82;;;;;;;8.31;100.00;99692.94;5019057;28;20033;-50
2022/09/27 01:14:33;;;;;;;0.20;0.20;;;;;;;8.31;100.00;99690.31;5021486;28;20042;-50
2022/09/27 01:17:29;;;;;;;3.78;0.20;;;;;;;8.24;100.00;99685.00;5020172;28;20041;-50
2022/09/27 01:20:13;;;;;;;1.05;0.30;;;;;;;8.07;100.00;99681.84;5027319;28;20033;-49
2022/09/27 01:23:10;;;;;;;7.57;1.23;;;;;;;8.08;100.00;99672.94;5027403;28;20094;-50
2022/09/27 01:26:09;;;;;;;0.90;0.20;;;;;;;8.00;100.00;99670.47;5023071;28;20028;-53
2022/09/27 01:28:53;;;;;;;4.32;0.40;;;;;;;7.92;100.00;99660.03;5030202;28;20026;-54
2022/09/27 01:31:47;;;;;;;6.00;0.60;;;;;;;7.86;100.00;99666.09;5021257;28;20433;-50
2022/09/27 01:34:31;;;;;;;7.00;0.13;;;;;;;7.80;100.00;99674.78;5024479;28;20156;-50
2022/09/27 01:37:18;;;;;;;7.88;0.75;;;;;;;7.76;100.00;99679.63;5026118;28;20040;-54
2022/09/27 01:39:59;;;;;;;5.75;0.60;;;;;;;7.79;100.00;99689.78;5029804;28;20029;-49
2022/09/27 01:42:31;;;;;;;2.67;0.17;;;;;;;7.93;100.00;99677.50;5028931;28;20414;-53
2022/09/27 01:45:18;;;;;;;4.40;0.20;;;;;;;7.92;100.00;99672.41;5026383;28;20044;-51
2022/09/27 01:47:49;;;;;;;1.55;0.85;;;;;;;7.84;100.00;99663.63;5019301;28;20034;-55
2022/09/27 01:50:21;;;;;;;0.77;0.00;;;;;;;7.75;100.00;99669.28;5027079;28;20037;-50
2022/09/27 01:53:00;;;;;;;2.83;0.20;;;;;;;7.62;100.00;99678.72;5026544;28;20463;-54
2022/09/27 01:55:32;;;;;;;4.47;0.25;;;;;;;7.59;100.00;99676.47;5023180;28;20026;-56
2022/09/27 01:58:03;;;;;;;1.85;0.30;;;;;;;7.65;100.00;99686.25;5024317;28;20393;-49
2022/09/27 02:00:29;;;;;;;2.83;0.32;;;;;;;7.66;100.00;99687.06;5023857;28;20112;-50
2022/09/27 02:02:58;;;;;;;2.40;0.10;;;;;;;7.65;100.00;99674.88;5027185;28;20112;-54
2022/09/27 02:05:36;;;;;;;4.28;0.10;;;;;;;7.60;100.00;99678.06;5025542;28;20552;-53
2022/09/27 02:08:07;;;;;;;6.63;0.60;;;;;;;7.62;100.00;99673.44;5015289;28;20033;-51
2022/09/27 02:10:44;;;;;;;2.80;0.23;;;;;;;7.73;100.00;99676.56;5022424;28;20029;-48
2022/09/27 02:13:09;;;;;;;1.13;0.28;;;;;;;7.75;100.00;99674.53;5011870;28;20058;-55
2022/09/27 02:15:47;;;;;;;2.63;0.20;;;;;;;7.83;100.00;99675.22;5018198;28;20087;-55
2022/09/27 02:18:22;;;;;;;1.27;0.08;;;;;;;7.84;100.00;99674.19;5021639;28;20071;-51
2022/09/27 02:20:57;;;;;;;3.95;0.63;;;;;;;7.80;100.00;99667.69;5027040;28;20040;-56
2022/09/27 02:23:34;;;;;;;2.03;0.00;;;;;;;7.64;100.00;99671.44;5019539;28;20105;-54
2022/09/27 02:26:03;;;;;;;3.67;0.28;;;;;;;7.55;100.00;99675.19;5018348;28;20030;-54
2022/09/27 02:28:32;;;;;;;0.30;0.30;;;;;;;7.49;100.00;99669.88;5029453;28;20364;-51
2022/09/27 02:30:58;;;;;;;4.97;0.57;;;;;;;7.42;100.00;99667.19;5025813;28;20041;-52
2022/09/27 02:33:29;;;;;;;2.38;0.17;;;;;;;7.35;100.00;99668.94;5026173;28;20037;-49
2022/09/27 02:35:54;;;;;;;2.72;0.43;;;;;;;7.22;100.00;99665.16;5020123;28;20038;-53
2022/09/27 02:38:20;;;;;;;1.88;0.20;;;;;;;7.07;100.00;99661.78;5023561;28;20040;-52
2022/09/27 02:40:46;;;;;;;1.75;0.32;;;;;;;7.03;100.00;99665.81;5026152;28;20030;-52
2022/09/27 02:43:16;;;;;;;0.20;0.10;;;;;;;7.05;100.00;99663.81;5026942;28;20069;-52
2022/09/27 02:46:02;;;;;;;1.90;0.38;;;;;;;7.14;100.00;99667.13;5027890;28;20368;-52
2022/09/27 02:48:42;;;;;;;7.97;0.22;;;;;;;7.24;100.00;99656.28;5030030;28;20383;-50
2022/09/27 02:51:33;;;;;;;2.20;0.10;;;;;;;7.22;100.00;99648.53;5020422;28;20096;-52
2022/09/27 02:54:34;;;;;;;2.75;0.57;;;;;;;7.10;100.00;99639.50;5020291;28;20042;-55
2022/09/27 02:57:34;;;;;;;0.08;0.00;;;;;;;6.98;100.00;99642.66;5028507;28;20444;-50
2022/09/27 03:00:09;;;;;;;3.70;0.85;;;;;;;6.96;100.00;99644.66;5028190;28;20041;-51
2022/09/27 03:02:58;;;;;;;1.75;0.10;;;;;;;7.01;100.00;99640.66;5036021;28;20074;-53
2022/09/27 03:05:30;;;;;;;0.30;0.00;;;;;;;7.07;100.00;99653.06;5031094;28;20064;-51
2022/09/27 03:07:56;;;;;;;3.30;0.40;;;;;;;6.99;100.00;99643.47;5029678;28;20121;-50
2022/09/27 03:10:25;;;;;;;2.53;0.55;;;;;;;7.01;100.00;99638.81;5029659;28;20104;-54
2022/09/27 03:12:52;;;;;;;1.67;0.52;;;;;;;6.98;100.00;99640.00;5029322;28;20100;-50
2022/09/27 03:15:18;;;;;;;1.70;0.38;;;;;;;6.94;100.00;99640.56;5036730;28;20043;-50
2022/09/27 03:17:43;;;;;;;3.50;0.55;;;;;;;6.87;100.00;99640.53;5033696;28;20033;-52
2022/09/27 03:20:08;;;;;;;2.45;0.65;;;;;;;6.71;100.00;99636.31;5037124;28;20351;-52
2022/09/27 03:22:34;;;;;;;0.88;0.30;;;;;;;6.55;100.00;99629.41;5021094;28;20266;-54
2022/09/27 03:25:00;;;;;;;0.57;0.10;;;;;;;6.39;100.00;99642.00;5020701;28;20026;-55
2022/09/27 03:27:26;;;;;;;2.92;0.55;;;;;;;6.30;100.00;99633.41;5028473;28;20037;-52
2022/09/27 03:29:51;;;;;;;0.68;0.10;;;;;;;6.28;100.00;99630.94;5031569;28;20121;-55
2022/09/27 03:32:17;;;;;;;4.15;0.57;;;;;;;6.25;100.00;99615.53;5030721;28;20029;-55
2022/09/27 03:34:43;;;;;;;6.90;1.42;;;;;;;6.22;100.00;99621.16;5031525;28;20030;-51
2022/09/27 03:37:08;;;;;;;0.30;0.13;;;;;;;6.11;100.00;99629.50;5036620;28;20029;-52
2022/09/27 03:39:34;;;;;;;1.42;0.30;;;;;;;6.00;100.00;99629.97;5031404;28;20064;-51
2022/09/27 03:41:59;;;;;;;2.90;0.20;;;;;;;5.94;100.00;99628.03;5026634;28;20053;-54
2022/09/27 03:44:24;;;;;;;5.68;2.30;;;;;;;5.92;100.00;99622.94;5028552;28;20029;-54
2022/09/27 03:46:50;;;;;;;2.85;0.10;;;;;;;5.93;100.00;99624.56;5035087;28;20458;-56
2022/09/27 03:49:15;;;;;;;2.95;0.15;;;;;;;5.96;100.00;99628.69;5031168;28;20038;-54
2022/09/27 03:51:41;;;;;;;10.23;0.22;;;;;;;5.99;100.00;99625.69;5027941;28;20029;-49
2022/09/27 03:54:06;;;;;;;1.27;0.00;;;;;;;6.27;100.00;99624.06;5025793;28;20033;-49
2022/09/27 03:56:32;;;;;;;2.20;0.25;;;;;;;6.40;100.00;99627.81;5031831;28;20030;-54
2022/09/27 03:58:57;;;;;;;1.27;0.85;;;;;;;6.50;100.00;99633.63;5026878;28;20040;-57
2022/09/27 04:01:24;;;;;;;10.10;0.52;;;;;;;6.58;100.00;99635.31;5035567;28;20079;-54
2022/09/27 04:03:50;;;;;;;0.43;0.10;;;;;;;6.65;100.00;99630.94;5023172;28;20041;-51
2022/09/27 04:06:16;;;;;;;1.60;0.50;;;;;;;6.71;100.00;99633.66;5025901;28;20107;-51
2022/09/27 04:08:42;;;;;;;3.63;0.28;;;;;;;6.86;100.00;99638.88;5031460;28;20057;-51
2022/09/27 04:11:07;;;;;;;2.85;0.63;;;;;;;6.93;100.00;99636.31;5028161;28;20056;-52
2022/09/27 04:13:33;;;;;;;0.50;0.10;;;;;;;6.96;100.00;99642.00;5028471;28;20057;-51
2022/09/27 04:15:58;;;;;;;1.45;0.20;;;;;;;6.97;100.00;99638.41;5031261;28;20116;-51
2022/09/27 04:18:23;;;;;;;0.77;0.00;;;;;;;7.02;100.00;99639.63;5027170;28;20358;-51
2022/09/27 04:20:49;;;;;;;1.65;0.20;;;;;;;7.09;100.00;99637.88;5024584;28;20055;-51
2022/09/27 04:23:14;;;;;;;2.88;0.10;;;;;;;7.16;100.00;99625.59;5022024;28;20068;-51
2022/09/27 04:25:39;;;;;;;3.22;0.40;;;;;;;7.20;100.00;99634.72;5020965;28;20034;-53
2022/09/27 04:28:05;;;;;;;1.13;0.80;;;;;;;7.27;100.00;99629.53;5030116;28;20107;-52
2022/09/27 04:30:31;;;;;;;5.57;0.63;;;;;;;7.31;100.00;99631.59;5021245;28;20033;-52
2022/09/27 04:32:57;;;;;;;4.47;0.63;;;;;;;7.35;100.00;99624.09;5027513;28;20075;-51
2022/09/27 04:38:06;;;;;;;3.17;1.17;;;;;;;7.34;100.00;99625.13;5024159;28;20044;-50
2022/09/27 04:40:35;;;;;;;0.20;0.10;;;;;;;7.36;100.00;99625.75;5028638;28;20017;-49
2022/09/27 04:43:03;;;;;;;4.15;0.10;;;;;;;7.40;100.00;99624.34;5029799;28;20451;-49
2022/09/27 04:45:29;;;;;;;7.55;1.27;;;;;;;7.44;100.00;99615.06;5030476;28;20047;-53
2022/09/27 04:47:54;;;;;;;5.03;0.10;;;;;;;7.50;100.00;99618.75;5029802;28;20033;-49
2022/09/27 04:50:20;;;;;;;2.78;1.08;;;;;;;7.55;100.00;99617.16;5023636;28;20018;-52
2022/09/27 04:52:52;;;;;;;0.90;0.00;;;;;;;7.60;100.00;99616.59;5029429;28;20059;-55
2022/09/27 04:55:21;;;;;;;2.67;0.35;;;;;;;7.59;100.00;99607.88;5027485;28;20060;-48
2022/09/27 04:57:47;;;;;;;3.40;0.10;;;;;;;7.62;100.00;99601.38;5025885;28;20038;-52
2022/09/27 05:00:14;;;;;;;0.38;0.10;;;;;;;7.62;100.00;99596.94;5029266;28;20023;-53
2022/09/27 05:02:39;;;;;;;4.72;0.20;;;;;;;7.58;100.00;99593.03;5030129;28;20453;-53
2022/09/27 05:05:05;;;;;;;4.18;0.95;;;;;;;7.60;100.00;99593.66;5034630;28;20063;-53
2022/09/27 05:07:33;;;;;;;5.82;0.47;;;;;;;7.61;100.00;99594.47;5029010;28;20054;-49
2022/09/27 05:09:58;;;;;;;1.52;0.15;;;;;;;7.52;100.00;99598.28;5021145;28;20029;-52
2022/09/27 05:12:25;;;;;;;2.55;0.10;;;;;;;7.54;100.00;99606.81;5018389;28;20099;-51
2022/09/27 05:14:51;;;;;;;1.75;0.10;;;;;;;7.58;100.00;99589.59;5027790;28;20441;-51
2022/09/27 05:17:17;;;;;;;0.80;0.30;;;;;;;7.60;100.00;99603.41;5028324;28;20029;-51
2022/09/27 05:19:43;;;;;;;5.22;0.30;;;;;;;7.55;100.00;99598.69;5027336;28;20086;-52
2022/09/27 05:22:08;;;;;;;2.22;0.30;;;;;;;7.51;100.00;99605.38;5023947;28;20029;-48
2022/09/27 05:24:34;;;;;;;3.38;0.30;;;;;;;7.57;100.00;99599.31;5023807;28;20128;-50
2022/09/27 05:27:00;;;;;;;13.50;2.33;;;;;;;7.62;100.00;99602.19;5032151;28;20029;-52
2022/09/27 05:29:26;;;;;;;5.30;0.73;;;;;;;7.70;100.00;99598.59;5025860;28;20022;-53
2022/09/27 05:31:51;;;;;;;5.40;0.13;;;;;;;7.73;100.00;99605.31;5023012;28;20056;-49
2022/09/27 05:34:19;;;;;;;0.47;0.10;;;;;;;7.76;100.00;99603.09;5025160;28;20501;-53
2022/09/27 05:36:46;;;;;;;1.17;0.20;;;;;;;7.79;100.00;99607.97;5037201;28;20098;-50
2022/09/27 05:39:12;;;;;;;0.10;0.00;;;;;;;7.71;100.00;99599.41;5019225;28;20036;-51
2022/09/27 05:41:38;;;;;;;2.75;0.90;;;;;;;7.60;100.00;99616.59;5024720;28;20112;-51
2022/09/27 05:44:04;;;;;;;0.77;0.03;;;;;;;7.42;100.00;99609.16;5030179;28;20025;-53
2022/09/27 05:46:30;;;;;;;4.45;0.30;;;;;;;7.34;100.00;99622.50;5017551;28;20467;-49
2022/09/27 05:48:55;;;;;;;4.10;0.68;;;;;;;7.32;100.00;99613.94;5022274;28;20040;-49
2022/09/27 05:51:20;;;;;;;0.55;0.00;;;;;;;7.32;100.00;99621.84;5030483;28;20025;-52
2022/09/27 05:53:46;;;;;;;7.20;0.95;;;;;;;7.37;100.00;99620.28;5022164;28;20183;-53
2022/09/27 05:56:12;;;;;;;1.83;1.20;;;;;;;7.43;100.00;99611.63;5021176;28;20418;-49
2022/09/27 05:58:37;;;;;;;9.52;0.30;;;;;;;7.52;100.00;99612.28;5024720;28;20030;-55
2022/09/27 06:01:06;;;;;;;2.10;0.10;;;;;;;7.48;100.00;99605.75;5021273;28;20064;-57
2022/09/27 06:03:31;;;;;;;2.28;0.20;;;;;;;7.44;100.00;99615.06;5017865;28;20038;-53
2022/09/27 06:06:00;;;;;;;1.17;0.38;;;;;;;7.54;100.00;99618.19;5020131;28;20398;-50
2022/09/27 06:08:26;;;;;;;3.40;0.30;;;;;;;7.65;100.00;99607.09;5010443;28;20926;-53
2022/09/27 06:11:00;;;;;;;3.20;0.28;;;;;;;7.75;100.00;99587.47;5016554;28;20588;-51
2022/09/27 06:13:26;;;;;;;2.80;0.10;;;;;;;7.73;100.00;99587.66;5019602;28;20060;-55
2022/09/27 06:15:52;;;;;;;2.30;0.15;;;;;;;7.73;100.00;99581.56;5019844;28;20390;-50
2022/09/27 06:18:17;;;;;;;0.95;0.00;;;;;;;7.71;100.00;99581.75;5021350;28;20547;-50
2022/09/27 06:20:43;;;;;;;3.40;0.15;;;;;;;7.72;100.00;99586.03;5019599;28;20109;-53
2022/09/27 06:23:10;;;;;;;8.90;0.85;;;;;;;7.79;100.00;99581.59;5014158;28;20425;-49
2022/09/27 06:25:37;;;;;;;1.42;0.10;;;;;;;7.82;100.00;99583.84;5029499;28;20030;-50
2022/09/27 06:28:03;;;;;;;5.68;0.45;;;;;;;7.79;100.00;99586.84;5028500;28;20074;-52
2022/09/27 06:30:29;;;;;;;0.35;0.10;;;;;;;7.76;100.00;99581.97;5024601;28;20045;-52
2022/09/27 06:32:59;;;;;;;4.10;0.65;;;;;;;7.73;100.00;99577.09;5019759;28;20095;-55
2022/09/27 06:35:26;;;;;;;2.00;0.22;;;;;;;7.72;100.00;99580.75;5023036;28;20042;-53
2022/09/27 06:37:51;;;;;;;4.38;0.10;;;;;;;7.76;100.00;99578.53;5030591;28;20206;-54
2022/09/27 06:40:18;;;;;;;1.90;0.25;;;;;;;7.83;100.00;99571.47;5023538;28;20125;-54
2022/09/27 06:42:43;;;;;;;2.03;0.30;;;;;;;7.85;100.00;99569.47;5016809;28;20080;-52
2022/09/27 06:45:09;;;;;;;3.20;0.30;;;;;;;7.88;100.00;99565.59;5021997;28;20029;-56
2022/09/27 06:47:38;;;;;;;2.90;0.47;;;;;;;7.91;100.00;99567.84;5022158;28;20533;-50
2022/09/27 06:50:05;;;;;;;1.50;0.10;;;;;;;7.92;100.00;99567.63;5022504;28;20032;-56
2022/09/27 06:52:34;;;;;;;0.90;0.20;;;;;;;8.00;100.00;99559.56;5028213;28;20056;-56
2022/09/27 06:55:00;;;;;;;2.85;0.20;;;;;;;8.05;100.00;99559.81;5022644;28;20034;-53
2022/09/27 07:00:23;;;;;;;11.68;0.38;;;;;;;8.16;100.00;99560.22;5023984;28;20083;-56
2022/09/27 07:02:49;;;;;;;6.15;0.88;;;;;;;8.23;100.00;99553.16;5025671;28;20504;-54
2022/09/27 07:05:17;;;;;;;4.88;0.30;;;;;;;8.21;100.00;99552.53;5011895;28;20501;-52
2022/09/27 07:07:43;;;;;;;1.70;0.45;;;;;;;8.17;100.00;99551.31;5027920;28;20025;-51
2022/09/27 07:10:09;;;;;;;3.92;0.95;;;;;;;8.17;100.00;99552.13;5019008;28;20107;-53
2022/09/27 07:12:35;;;;;;;3.95;0.93;;;;;;;8.21;100.00;99548.09;5020892;28;20392;-54
2022/09/27 07:15:01;;;;;;;3.42;0.30;;;;;;;8.23;100.00;99547.88;5024157;28;20041;-51
2022/09/27 07:17:26;;;;;;;12.82;1.25;;;;;;;8.26;100.00;99545.66;5024664;28;20091;-53
2022/09/27 07:19:53;;;;;;;4.43;0.40;;;;;;;8.39;100.00;99538.75;5027370;28;20068;-54
2022/09/27 07:22:18;;;;;;;3.20;0.17;;;;;;;8.52;100.00;99544.94;5024633;28;20037;-51
2022/09/27 07:24:44;;;;;;;9.63;0.40;;;;;;;8.65;100.00;99551.28;5020137;23;20034;-51
2022/09/27 07:27:09;;;;;;;2.78;1.02;;;;;;;8.72;100.00;99552.06;5009299;28;20710;-51
2022/09/27 07:29:34;;;;;;;5.45;0.60;;;;;;;8.76;100.00;99539.28;5006749;28;20025;-49
2022/09/27 07:32:00;;;;;;;2.72;0.28;;;;;;;8.83;100.00;99540.91;5004121;28;20052;-54
2022/09/27 07:34:26;;;;;;;6.38;0.88;;;;;;;8.85;100.00;99532.78;5007511;28;20065;-52
2022/09/27 07:36:53;;;;;;;4.50;0.55;;;;;;;8.78;100.00;99531.94;5001282;28;20026;-54
2022/09/27 07:39:20;;;;;;;2.88;0.82;;;;;;;8.70;100.00;99525.06;5004290;28;20018;-51
2022/09/27 07:41:46;;;;;;;3.90;0.77;;;;;;;8.69;100.00;99540.06;5001621;28;20722;-50
2022/09/27 07:44:14;;;;;;;10.00;2.17;;;;;;;8.70;100.00;99528.50;5004643;28;20022;-51
2022/09/27 07:46:40;;;;;;;3.88;1.10;;;;;;;8.76;100.00;99518.13;5010787;28;20453;-54
2022/09/27 07:49:05;;;;;;;7.47;1.08;;;;;;;8.82;100.00;99519.97;5009357;28;20030;-50
2022/09/27 07:51:31;;;;;;;9.88;1.00;;;;;;;8.99;100.00;99515.09;5011802;28;20400;-53
2022/09/27 07:53:56;;;;;;;6.40;0.30;;;;;;;9.16;100.00;99505.72;5010712;28;20463;-51
2022/09/27 07:56:21;;;;;;;7.03;1.23;;;;;;;9.38;100.00;99501.00;5011245;28;20021;-54
2022/09/27 07:58:47;;;;;;;7.20;1.15;;;;;;;9.59;100.00;99489.34;5008328;28;20109;-54
2022/09/27 08:01:12;;;;;;;6.28;0.40;;;;;;;9.78;100.00;99491.13;5007956;28;20127;-51
2022/09/27 08:03:39;;;;;;;2.25;0.65;;;;;;;9.91;100.00;99494.72;5011858;28;20037;-54
2022/09/27 08:06:04;;;;;;;4.32;0.93;;;;;;;9.96;100.00;99493.06;5009242;28;20022;-54
2022/09/27 08:08:30;;;;;;;7.88;1.35;;;;;;;9.92;100.00;99491.88;5012090;28;20028;-48
2022/09/27 08:10:55;;;;;;;2.67;0.30;;;;;;;9.87;100.00;99486.38;5010499;28;20069;-56
2022/09/27 08:13:21;;;;;;;5.15;1.13;;;;;;;9.88;100.00;99479.25;5011672;28;20033;-58
2022/09/27 08:15:47;;;;;;;6.70;0.95;;;;;;;9.89;100.00;99480.91;5010113;28;20509;-56
2022/09/27 08:18:13;;;;;;;6.03;0.85;;;;;;;9.97;100.00;99483.28;5011716;28;20026;-58
2022/09/27 08:20:39;;;;;;;5.47;0.73;;;;;;;10.22;100.00;99483.34;5009990;28;20066;-57
2022/09/27 08:23:04;;;;;;;16.13;3.60;;;;;;;10.43;100.00;99477.75;5011650;28;20044;-55
2022/09/27 08:25:30;;;;;;;5.35;0.88;;;;;;;10.58;100.00;99485.38;5010864;28;20124;-49
2022/09/27 08:27:57;;;;;;;14.02;1.55;;;;;;;10.65;100.00;99472.09;5010299;28;20557;-50
2022/09/27 08:30:24;;;;;;;3.65;0.85;;;;;;;10.64;100.00;99476.59;5010800;28;20014;-59
2022/09/27 08:32:54;;;;;;;5.55;0.70;;;;;;;10.59;100.00;99476.41;5009553;28;20121;-56
2022/09/27 08:35:20;;;;;;;4.85;1.23;;;;;;;10.58;100.00;99479.28;5006703;28;20545;-51
2022/09/27 08:37:53;;;;;;;5.22;0.65;;;;;;;10.60;100.00;99487.81;5010761;28;20038;-51
2022/09/27 08:40:22;;;;;;;8.82;1.92;;;;;;;10.58;100.00;99484.56;5010629;28;20149;-52
2022/09/27 08:43:02;;;;;;;6.80;1.00;;;;;;;10.60;100.00;99488.63;5010625;28;20084;-55
2022/09/27 08:45:33;;;;;;;9.07;2.15;;;;;;;10.62;100.00;99493.72;5004724;28;20483;-53
2022/09/27 08:48:01;;;;;;;7.88;1.35;;;;;;;10.59;100.00;99487.03;5010332;28;20053;-56
2022/09/27 08:50:33;;;;;;;5.18;1.42;;;;;;;10.62;100.00;99486.59;5007658;28;20053;-58
2022/09/27 08:53:01;;;;;;;15.90;1.13;;;;;;;10.70;100.00;99481.00;5011275;28;20026;-60
2022/09/27 08:55:37;;;;;;;9.02;0.50;;;;;;;10.86;100.00;99478.84;5010652;28;20026;-59
2022/09/27 08:58:12;;;;;;;9.57;0.70;;;;;;;11.00;100.00;99461.81;5010103;28;20022;-59
2022/09/27 09:00:38;;;;;;;7.60;1.30;;;;;;;11.09;100.00;99478.25;5001331;28;20026;-57
2022/09/27 09:03:04;;;;;;;6.15;0.45;;;;;;;11.14;100.00;99463.28;5006902;28;20026;-56
2022/09/27 09:05:33;;;;;;;9.40;2.88;;;;;;;11.15;100.00;99474.69;5008028;28;20022;-59
2022/09/27 09:08:27;;;;;;;12.57;1.05;;;;;;;11.20;100.00;99477.50;5010562;28;20547;-56
2022/09/27 09:14:23;;;;;;;7.30;1.77;;;;;;;11.28;100.00;99469.28;5011799;28;20549;-54
2022/09/27 09:17:16;;;;;;;7.70;0.93;;;;;;;11.30;100.00;99464.53;5009858;28;20080;-57
2022/09/27 09:20:28;;;;;;;13.32;0.82;;;;;;;11.29;100.00;99454.16;5010577;28;20120;-59
2022/09/27 09:23:05;;;;;;;5.75;0.40;;;;;;;11.39;100.00;99464.28;5010543;28;20061;-52
2022/09/27 09:25:49;;;;;;;5.43;1.30;;;;;;;11.52;100.00;99454.31;5009647;28;20145;-61
2022/09/27 09:28:14;;;;;;;7.88;1.45;;;;;;;11.61;100.00;99457.47;5008463;28;20053;-57
2022/09/27 09:30:58;;;;;;;8.40;1.35;;;;;;;11.69;100.00;99459.81;5008279;28;20034;-61
2022/09/27 09:33:32;;;;;;;6.03;1.27;;;;;;;11.71;100.00;99448.97;5004703;28;20033;-61
2022/09/27 09:36:26;;;;;;;3.17;1.08;;;;;;;11.77;100.00;99451.56;5008345;28;20109;-59
2022/09/27 09:38:57;;;;;;;6.28;1.00;;;;;;;11.93;100.00;99460.78;5005222;28;20033;-60
2022/09/27 09:41:35;;;;;;;9.57;3.13;;;;;;;12.08;100.00;99449.78;5009694;28;20483;-59
2022/09/27 09:44:17;;;;;;;6.70;1.45;;;;;;;12.25;100.00;99441.94;5010110;28;20430;-53
2022/09/27 09:46:47;;;;;;;4.35;1.13;;;;;;;12.29;100.00;99427.19;5000844;28;20129;-55
2022/09/27 09:49:22;;;;;;;12.38;1.45;;;;;;;12.22;100.00;99431.78;5010805;28;20483;-56
2022/09/27 09:51:51;;;;;;;7.10;0.68;;;;;;;12.29;100.00;99434.31;5009975;28;20085;-57
2022/09/27 09:54:25;;;;;;;4.95;0.45;;;;;;;12.30;100.00;99428.78;5011319;28;20053;-48
2022/09/27 09:57:06;;;;;;;3.22;1.58;;;;;;;12.25;100.00;99426.00;5009746;28;20042;-54
2022/09/27 09:59:42;;;;;;;2.88;0.75;;;;;;;12.21;100.00;99424.84;5007696;28;20138;-56
2022/09/27 10:02:26;;;;;;;2.65;0.57;;;;;;;12.29;100.00;99423.69;5009179;28;20567;-55
2022/09/27 10:04:51;;;;;;;5.65;1.60;;;;;;;12.33;100.00;99427.53;5009022;28;20026;-49
2022/09/27 10:07:22;;;;;;;4.72;0.45;;;;;;;12.28;100.00;99412.25;5000667;28;20025;-56
2022/09/27 10:09:47;;;;;;;4.47;1.03;;;;;;;12.20;100.00;99415.25;5010494;28;20034;-53
2022/09/27 10:12:13;;;;;;;1.65;0.30;;;;;;;12.10;100.00;99417.63;5009329;28;20486;-56
2022/09/27 10:14:39;;;;;;;3.05;0.85;;;;;;;11.86;100.00;99422.03;5010018;28;20119;-60
2022/09/27 10:17:11;;;;;;;4.50;0.52;;;;;;;11.71;100.00;99420.56;5007551;28;20041;-60
2022/09/27 10:19:38;;;;;;;11.90;1.33;;;;;;;11.74;100.00;99414.81;5009456;28;20038;-60
2022/09/27 10:22:20;;;;;;;2.55;0.30;;;;;;;11.93;100.00;99401.53;5009117;28;20030;-62
2022/09/27 10:25:02;;;;;;;3.53;0.85;;;;;;;11.97;100.00;99398.19;5007145;28;20069;-50
2022/09/27 10:27:38;;;;;;;5.25;0.70;;;;;;;12.07;100.00;99394.19;5009352;28;20034;-53
2022/09/27 10:30:04;;;;;;;1.08;0.10;;;;;;;12.21;100.00;99388.44;5009834;28;20494;-50
2022/09/27 10:32:35;;;;;;;2.85;0.85;;;;;;;12.53;100.00;99387.34;5009350;28;20022;-62
2022/09/27 10:35:29;;;;;;;4.13;0.87;;;;;;;12.69;100.00;99386.63;5010537;28;20026;-51
2022/09/27 10:38:31;;;;;;;4.38;0.35;;;;;;;12.82;100.00;99389.06;5008997;28;20068;-58
2022/09/27 10:41:15;;;;;;;3.67;0.70;;;;;;;11.86;100.00;99420.22;5005258;28;20044;-55
2022/09/27 10:43:41;;;;;;;3.95;0.68;;;;;;;10.47;100.00;99425.94;5009915;28;20070;-60
2022/09/27 10:46:19;;;;;;;2.47;0.70;;;;;;;10.08;100.00;99437.59;5008922;28;20076;-58
2022/09/27 10:48:44;;;;;;;4.57;0.77;;;;;;;10.16;100.00;99433.88;5009500;28;20029;-53
2022/09/27 10:51:28;;;;;;;4.35;0.35;;;;;;;10.31;100.00;99434.41;5010244;28;20104;-55
2022/09/27 10:53:59;;;;;;;6.50;0.80;;;;;;;10.32;100.00;99440.53;5009567;28;20026;-60
2022/09/27 10:56:34;;;;;;;5.88;1.00;;;;;;;10.36;100.00;99453.13;5012669;28;20052;-57
2022/09/27 10:59:01;;;;;;;2.05;0.50;;;;;;;10.21;100.00;99442.00;5008232;28;20030;-58
2022/09/27 11:01:41;;;;;;;2.92;0.95;;;;;;;10.13;100.00;99458.16;5010618;28;20044;-57
2022/09/27 11:04:16;;;;;;;5.95;0.90;;;;;;;9.97;100.00;99454.16;5011629;28;20033;-54
2022/09/27 11:06:41;;;;;;;2.30;0.85;;;;;;;9.75;100.00;99438.56;5013078;28;20487;-62
2022/09/27 11:09:25;;;;;;;2.28;0.43;;;;;;;9.75;100.00;99438.56;5011920;28;20060;-57
2022/09/27 11:12:13;;;;;;;5.22;0.73;;;;;;;9.52;100.00;99440.91;5011108;28;20026;-61
2022/09/27 11:14:39;;;;;;;4.57;1.10;;;;;;;9.67;100.00;99440.66;5011825;28;20021;-58
2022/09/27 11:17:11;;;;;;;2.92;0.57;;;;;;;9.80;100.00;99441.41;5012400;28;20018;-55
2022/09/27 11:19:52;;;;;;;2.40;0.10;;;;;;;10.02;100.00;99439.25;5011560;28;20498;-54
2022/09/27 11:22:42;;;;;;;0.43;0.28;;;;;;;10.03;100.00;99453.31;5008402;28;20112;-54
2022/09/27 11:25:29;;;;;;;2.50;1.20;;;;;;;9.92;100.00;99435.44;5006717;28;20060;-58
2022/09/27 11:28:13;;;;;;;3.40;0.17;;;;;;;9.97;100.00;99439.09;5009035;28;20026;-58
2022/09/27 11:30:44;;;;;;;2.78;0.40;;;;;;;10.00;100.00;99433.34;5008768;28;20030;-52
2022/09/27 11:33:37;;;;;;;1.80;0.65;;;;;;;9.89;100.00;99420.00;5012838;28;20097;-58
2022/09/27 11:36:33;;;;;;;5.97;0.40;;;;;;;9.76;100.00;99415.59;5011445;28;20472;-60
2022/09/27 11:39:27;;;;;;;1.30;0.43;;;;;;;9.89;100.00;99422.66;5011403;28;20112;-55
2022/09/27 11:42:22;;;;;;;2.75;0.20;;;;;;;9.96;100.00;99436.63;5000473;28;20118;-60
2022/09/27 11:45:17;;;;;;;0.43;0.00;;;;;;;9.88;100.00;99411.22;4999646;28;20023;-61
2022/09/27 11:47:51;;;;;;;2.40;0.47;;;;;;;9.93;100.00;99445.00;5011406;28;20030;-60
2022/09/27 11:51:09;;;;;;;3.30;0.22;;;;;;;9.69;100.00;99428.84;5008743;28;20505;-63
2022/09/27 11:53:54;;;;;;;0.35;0.00;;;;;;;9.70;100.00;99419.88;4965450;28;20070;-61
2022/09/27 11:56:28;;;;;;;1.75;0.30;;;;;;;9.81;100.00;99411.28;4968608;28;20041;-61
2022/09/27 11:59:36;;;;;;;10.80;1.17;;;;;;;9.81;100.00;99411.28;4997232;28;20073;-60